Time;durP1;ratioP1;P1;durP2;ratioP2;P2;SDS_P1;SDS_P2;PMS_P1;PMS_P2;Temp;Humidity;BMP_temperature;BMP_pressure;BME280_temperature;BME280_humidity;BME280_pressure;Samples;Min_cycle;Max_cycle;Signal;HPM_P1;HPM_P2
2022/06/26 00:01:03;;;;;;;3.75;2.95;;;;;;;;;;4997249;28;20026;-65
2022/06/26 00:03:28;;;;;;;2.95;2.78;;;;;;;;;;5014754;28;20042;-67
2022/06/26 00:05:55;;;;;;;4.03;3.08;;;;;;;;;;5014636;28;20034;-68
2022/06/26 00:08:21;;;;;;;3.17;2.85;;;;;;;;;;5015095;28;20026;-70
2022/06/26 00:10:47;;;;;;;3.03;2.72;;;;;;;;;;4997098;28;20117;-70
2022/06/26 00:13:13;;;;;;;4.07;2.72;;;;;;;;;;5014941;28;20060;-68
2022/06/26 00:15:38;;;;;;;3.53;2.83;;;;;;;;;;5014803;28;20018;-68
2022/06/26 00:18:04;;;;;;;3.22;2.97;;;;;;;;;;4996823;28;20038;-68
2022/06/26 00:20:29;;;;;;;3.22;3.03;;;;;;;;;;5014820;28;20026;-68
2022/06/26 00:22:55;;;;;;;3.08;2.88;;;;;;;;;;5014325;28;20029;-68
2022/06/26 00:27:53;;;;;;;3.28;2.97;;;;;;;;;;5009864;28;20046;-68
2022/06/26 00:30:19;;;;;;;3.00;2.80;;;;;;;;;;5013104;28;20036;-68
2022/06/26 00:32:44;;;;;;;3.25;3.05;;;;;;;;;;4997230;28;20044;-68
2022/06/26 00:35:10;;;;;;;3.67;2.88;;;;;;;;;;5014206;28;20026;-68
2022/06/26 00:37:35;;;;;;;4.03;3.00;;;;;;;;;;5014593;28;20033;-70
2022/06/26 00:40:00;;;;;;;3.58;3.30;;;;;;;;;;4996591;28;20018;-70
2022/06/26 00:42:26;;;;;;;4.38;3.28;;;;;;;;;;5014619;28;20034;-70
2022/06/26 00:44:55;;;;;;;3.58;3.28;;;;;;;;;;4997091;28;20029;-68
2022/06/26 00:47:21;;;;;;;3.83;2.95;;;;;;;;;;5013723;28;20069;-69
2022/06/26 00:49:46;;;;;;;3.03;2.83;;;;;;;;;;4996473;28;20066;-69
2022/06/26 00:52:12;;;;;;;3.30;3.10;;;;;;;;;;4980238;28;20113;-69
2022/06/26 00:54:37;;;;;;;3.00;2.80;;;;;;;;;;5013976;28;20046;-69
2022/06/26 00:57:03;;;;;;;3.65;2.90;;;;;;;;;;5014111;28;20444;-71
2022/06/26 00:59:30;;;;;;;2.92;2.72;;;;;;;;;;4996378;28;20018;-71
2022/06/26 01:01:56;;;;;;;3.42;3.15;;;;;;;;;;5012664;28;20034;-72
2022/06/26 01:04:21;;;;;;;3.90;3.13;;;;;;;;;;5014100;28;20018;-72
2022/06/26 01:06:48;;;;;;;3.00;2.80;;;;;;;;;;5012511;28;20034;-72
2022/06/26 01:09:13;;;;;;;4.03;3.10;;;;;;;;;;4996171;28;20049;-72
2022/06/26 01:11:40;;;;;;;3.65;3.28;;;;;;;;;;5012442;28;20451;-72
2022/06/26 01:14:05;;;;;;;3.40;3.17;;;;;;;;;;4996116;28;20025;-72
2022/06/26 01:16:31;;;;;;;5.20;3.22;;;;;;;;;;5012600;28;20033;-72
2022/06/26 01:18:58;;;;;;;3.55;3.25;;;;;;;;;;5013837;28;20479;-72
2022/06/26 01:21:24;;;;;;;3.70;3.40;;;;;;;;;;5014122;28;20030;-72
2022/06/26 01:23:50;;;;;;;3.60;2.92;;;;;;;;;;4996173;28;20033;-70
2022/06/26 01:26:16;;;;;;;3.30;3.00;;;;;;;;;;4993001;28;20092;-71
2022/06/26 01:28:42;;;;;;;3.65;3.10;;;;;;;;;;4976813;28;20033;-75
2022/06/26 01:31:08;;;;;;;3.72;3.22;;;;;;;;;;5009303;28;20515;-75
2022/06/26 01:33:35;;;;;;;4.30;3.45;;;;;;;;;;5009332;28;20038;-74
2022/06/26 01:36:01;;;;;;;4.50;3.40;;;;;;;;;;5009019;28;20065;-75
2022/06/26 01:38:28;;;;;;;3.70;3.40;;;;;;;;;;4992707;28;20022;-75
2022/06/26 01:40:54;;;;;;;3.78;3.47;;;;;;;;;;5009227;28;20118;-74
2022/06/26 01:43:20;;;;;;;4.90;3.33;;;;;;;;;;4992697;28;20105;-74
2022/06/26 01:45:48;;;;;;;3.17;2.97;;;;;;;;;;5009218;28;20034;-74
2022/06/26 01:48:13;;;;;;;4.07;3.20;;;;;;;;;;5008937;28;20084;-75
2022/06/26 01:50:39;;;;;;;3.35;3.15;;;;;;;;;;5009128;28;20027;-74
2022/06/26 01:53:06;;;;;;;3.58;3.03;;;;;;;;;;5009102;28;20046;-74
2022/06/26 01:55:31;;;;;;;3.67;3.38;;;;;;;;;;4993029;28;20058;-74
2022/06/26 01:58:02;;;;;;;3.55;3.25;;;;;;;;;;4992814;28;20026;-74
2022/06/26 02:00:32;;;;;;;4.43;3.25;;;;;;;;;;5010835;28;20034;-73
2022/06/26 02:02:58;;;;;;;3.45;3.15;;;;;;;;;;5012478;28;20030;-73
2022/06/26 02:05:25;;;;;;;3.30;3.10;;;;;;;;;;5012981;28;20034;-74
2022/06/26 02:07:51;;;;;;;3.25;3.05;;;;;;;;;;5012349;28;20029;-73
2022/06/26 02:15:50;;;;;;;4.70;3.63;;;;;;;;;;5012239;28;20081;-70
2022/06/26 02:18:15;;;;;;;5.25;3.78;;;;;;;;;;5045040;23;20045;-74
2022/06/26 02:20:41;;;;;;;3.88;3.58;;;;;;;;;;5035015;28;20025;-73
2022/06/26 02:23:09;;;;;;;3.58;3.28;;;;;;;;;;5036392;28;20486;-73
2022/06/26 02:25:34;;;;;;;4.75;3.28;;;;;;;;;;5035040;28;20030;-74
2022/06/26 02:28:01;;;;;;;6.32;3.33;;;;;;;;;;5036239;28;20033;-74
2022/06/26 02:30:27;;;;;;;3.67;3.45;;;;;;;;;;5037052;28;20018;-74
2022/06/26 02:32:56;;;;;;;3.47;3.17;;;;;;;;;;5051537;28;20482;-73
2022/06/26 02:35:21;;;;;;;4.55;3.38;;;;;;;;;;5051456;28;20057;-73
2022/06/26 02:37:47;;;;;;;4.53;3.10;;;;;;;;;;5034882;28;20021;-74
2022/06/26 02:40:13;;;;;;;4.88;3.80;;;;;;;;;;5051398;28;20456;-75
2022/06/26 02:42:38;;;;;;;4.53;3.80;;;;;;;;;;5051372;28;20416;-75
2022/06/26 02:45:04;;;;;;;4.15;3.75;;;;;;;;;;5034719;28;20107;-74
2022/06/26 02:47:30;;;;;;;3.78;3.53;;;;;;;;;;5034628;28;20118;-75
2022/06/26 02:49:55;;;;;;;3.55;3.35;;;;;;;;;;5035179;28;20121;-74
2022/06/26 02:52:21;;;;;;;3.60;3.30;;;;;;;;;;5051595;28;20451;-74
2022/06/26 02:54:47;;;;;;;3.67;3.38;;;;;;;;;;5034548;28;20036;-75
2022/06/26 02:57:13;;;;;;;3.75;3.40;;;;;;;;;;5035737;28;20104;-75
2022/06/26 02:59:38;;;;;;;3.70;3.50;;;;;;;;;;5035897;28;20060;-75
2022/06/26 03:02:05;;;;;;;3.15;2.95;;;;;;;;;;5051053;28;20021;-75
2022/06/26 03:04:52;;;;;;;3.42;3.15;;;;;;;;;;5034308;28;20037;-74
2022/06/26 03:07:18;;;;;;;4.13;3.72;;;;;;;;;;5034229;28;20083;-74
2022/06/26 03:09:44;;;;;;;3.78;3.47;;;;;;;;;;5034608;28;20372;-74
2022/06/26 03:12:09;;;;;;;6.68;3.80;;;;;;;;;;5050685;28;20045;-75
2022/06/26 03:14:40;;;;;;;6.95;4.00;;;;;;;;;;5050793;28;20028;-74
2022/06/26 03:17:05;;;;;;;4.18;3.78;;;;;;;;;;5035795;28;20029;-74
2022/06/26 03:19:31;;;;;;;4.68;3.90;;;;;;;;;;5034050;28;20506;-75
2022/06/26 03:21:57;;;;;;;5.05;3.67;;;;;;;;;;5033976;28;20032;-74
2022/06/26 03:24:22;;;;;;;5.00;3.28;;;;;;;;;;5050579;28;20029;-74
2022/06/26 03:26:47;;;;;;;3.90;3.70;;;;;;;;;;5035125;28;20034;-74
2022/06/26 03:29:13;;;;;;;5.53;5.03;;;;;;;;;;5050470;28;20021;-75
2022/06/26 03:31:39;;;;;;;4.35;4.05;;;;;;;;;;5035777;28;20096;-76
2022/06/26 03:34:07;;;;;;;5.00;4.35;;;;;;;;;;5034548;28;20014;-76
2022/06/26 03:36:33;;;;;;;6.18;5.05;;;;;;;;;;5050324;28;20036;-75
2022/06/26 03:39:00;;;;;;;6.50;5.82;;;;;;;;;;5033695;28;20058;-74
2022/06/26 03:41:28;;;;;;;7.30;5.55;;;;;;;;;;5033876;28;20541;-74
2022/06/26 03:43:54;;;;;;;5.32;4.72;;;;;;;;;;5049916;28;20029;-75
2022/06/26 03:46:19;;;;;;;6.30;3.92;;;;;;;;;;5034356;28;20033;-75
2022/06/26 03:48:45;;;;;;;4.43;3.65;;;;;;;;;;5049953;28;20466;-75
2022/06/26 03:51:10;;;;;;;7.30;3.83;;;;;;;;;;5033034;28;20052;-75
2022/06/26 03:53:38;;;;;;;4.55;4.10;;;;;;;;;;5049539;28;20040;-75
2022/06/26 03:56:03;;;;;;;5.88;4.57;;;;;;;;;;5033065;28;20025;-71
2022/06/26 03:58:29;;;;;;;6.15;5.13;;;;;;;;;;5033178;28;20236;-71
2022/06/26 04:00:54;;;;;;;6.55;5.68;;;;;;;;;;5032996;28;20029;-71
2022/06/26 04:03:20;;;;;;;9.32;7.25;;;;;;;;;;5034264;28;20014;-70
2022/06/26 04:05:46;;;;;;;6.97;6.30;;;;;;;;;;5032951;28;20036;-71
2022/06/26 04:08:11;;;;;;;8.02;5.55;;;;;;;;;;5049557;28;20022;-75
2022/06/26 04:10:43;;;;;;;7.38;4.75;;;;;;;;;;5032969;28;20045;-76
2022/06/26 04:13:29;;;;;;;5.85;4.57;;;;;;;;;;5032880;28;20266;-74
2022/06/26 04:15:55;;;;;;;4.68;4.20;;;;;;;;;;5032829;28;20100;-74
2022/06/26 04:18:20;;;;;;;36.28;4.43;;;;;;;;;;5032506;28;20041;-75
2022/06/26 04:20:46;;;;;;;4.30;4.00;;;;;;;;;;5033412;28;20095;-75
2022/06/26 04:23:11;;;;;;;4.20;3.80;;;;;;;;;;5048277;28;20017;-74
2022/06/26 04:25:40;;;;;;;5.15;3.80;;;;;;;;;;5032131;28;20074;-74
2022/06/26 04:28:06;;;;;;;4.78;4.15;;;;;;;;;;5031712;28;20502;-74
2022/06/26 04:30:35;;;;;;;5.47;4.35;;;;;;;;;;5031698;28;20037;-75
2022/06/26 04:33:00;;;;;;;5.00;3.88;;;;;;;;;;5031711;28;20022;-75
2022/06/26 04:35:26;;;;;;;7.30;4.63;;;;;;;;;;5031956;28;20036;-75
2022/06/26 04:37:52;;;;;;;6.38;5.40;;;;;;;;;;5048262;28;20505;-75
2022/06/26 04:40:19;;;;;;;5.05;4.55;;;;;;;;;;5031536;28;20025;-75
2022/06/26 04:42:44;;;;;;;5.07;4.57;;;;;;;;;;5048159;28;20018;-74
2022/06/26 04:45:10;;;;;;;7.03;5.25;;;;;;;;;;5048433;28;20040;-74
2022/06/26 04:47:36;;;;;;;6.70;4.75;;;;;;;;;;5031426;28;20022;-74
2022/06/26 04:50:09;;;;;;;5.15;4.55;;;;;;;;;;5031477;28;20022;-74
2022/06/26 04:52:35;;;;;;;4.07;3.78;;;;;;;;;;5031415;28;20505;-74
2022/06/26 04:55:00;;;;;;;4.70;3.67;;;;;;;;;;5048012;28;20065;-74
2022/06/26 04:57:27;;;;;;;6.22;3.50;;;;;;;;;;5048231;28;20037;-76
2022/06/26 04:59:53;;;;;;;4.63;3.65;;;;;;;;;;5032712;28;20025;-74
2022/06/26 05:02:19;;;;;;;4.53;3.63;;;;;;;;;;5031424;28;20436;-75
2022/06/26 05:04:53;;;;;;;3.83;3.35;;;;;;;;;;5032601;28;20022;-75
2022/06/26 05:07:19;;;;;;;3.85;3.53;;;;;;;;;;5032829;28;20041;-74
2022/06/26 05:09:45;;;;;;;3.85;3.55;;;;;;;;;;5031326;28;20021;-74
2022/06/26 05:12:11;;;;;;;3.50;3.20;;;;;;;;;;5031338;28;20024;-74
2022/06/26 05:15:03;;;;;;;3.70;3.40;;;;;;;;;;5029321;28;20021;-75
2022/06/26 05:17:35;;;;;;;10.00;3.20;;;;;;;;;;5031006;28;20129;-75
2022/06/26 05:20:01;;;;;;;3.58;3.38;;;;;;;;;;5032562;28;20104;-75
2022/06/26 05:22:26;;;;;;;4.22;3.17;;;;;;;;;;5048065;28;20030;-75
2022/06/26 05:24:53;;;;;;;6.07;3.60;;;;;;;;;;5047870;28;20032;-75
2022/06/26 05:27:18;;;;;;;4.05;3.08;;;;;;;;;;5031016;28;20454;-75
2022/06/26 05:29:44;;;;;;;3.28;3.08;;;;;;;;;;5047630;28;20025;-75
2022/06/26 05:32:10;;;;;;;3.70;3.10;;;;;;;;;;5031074;28;20113;-74
2022/06/26 05:34:36;;;;;;;4.72;3.38;;;;;;;;;;5048299;28;20025;-75
2022/06/26 05:37:02;;;;;;;5.05;3.58;;;;;;;;;;5035031;28;20503;-74
2022/06/26 05:39:27;;;;;;;5.18;3.20;;;;;;;;;;5036186;28;20052;-75
2022/06/26 05:41:52;;;;;;;5.78;3.40;;;;;;;;;;5034809;28;20108;-74
2022/06/26 05:44:18;;;;;;;5.72;3.33;;;;;;;;;;5051445;28;20083;-74
2022/06/26 05:46:47;;;;;;;3.97;3.40;;;;;;;;;;5034779;28;20021;-74
2022/06/26 05:49:18;;;;;;;3.60;3.30;;;;;;;;;;5036367;28;20037;-74
2022/06/26 05:52:03;;;;;;;5.03;3.45;;;;;;;;;;5049215;28;20048;-75
2022/06/26 05:54:52;;;;;;;3.63;3.33;;;;;;;;;;5030226;28;20117;-75
2022/06/26 05:57:36;;;;;;;4.43;3.50;;;;;;;;;;5036278;28;20036;-75
2022/06/26 06:00:20;;;;;;;5.15;3.35;;;;;;;;;;5036668;28;20052;-74
2022/06/26 06:02:52;;;;;;;4.15;3.42;;;;;;;;;;5051105;28;20030;-74
2022/06/26 06:05:19;;;;;;;4.70;3.25;;;;;;;;;;5034438;28;20033;-74
2022/06/26 06:07:46;;;;;;;3.83;3.53;;;;;;;;;;5034377;28;20025;-74
2022/06/26 06:10:11;;;;;;;3.97;3.20;;;;;;;;;;5050949;28;20438;-74
2022/06/26 06:12:39;;;;;;;6.85;4.20;;;;;;;;;;5050802;28;20072;-75
2022/06/26 06:15:06;;;;;;;8.27;4.40;;;;;;;;;;5017859;28;20029;-74
2022/06/26 06:17:37;;;;;;;4.70;3.65;;;;;;;;;;5034254;28;20052;-75
2022/06/26 06:20:07;;;;;;;3.90;3.50;;;;;;;;;;5050822;28;20034;-70
2022/06/26 06:22:38;;;;;;;3.25;3.00;;;;;;;;;;5034280;28;20025;-70
2022/06/26 06:25:04;;;;;;;4.47;3.38;;;;;;;;;;5034026;28;20029;-70
2022/06/26 06:27:30;;;;;;;3.17;2.97;;;;;;;;;;5033992;28;20396;-71
2022/06/26 06:30:03;;;;;;;3.10;2.90;;;;;;;;;;5033941;28;20033;-70
2022/06/26 06:32:30;;;;;;;2.90;2.50;;;;;;;;;;5034017;28;20033;-71
2022/06/26 06:34:55;;;;;;;3.38;2.95;;;;;;;;;;5034173;28;20432;-70
2022/06/26 06:37:21;;;;;;;3.20;2.90;;;;;;;;;;5050470;28;20036;-70
2022/06/26 06:39:46;;;;;;;3.60;3.10;;;;;;;;;;5050399;28;20021;-71
2022/06/26 06:42:12;;;;;;;3.53;2.95;;;;;;;;;;5034983;28;20108;-70
2022/06/26 06:44:38;;;;;;;3.97;2.97;;;;;;;;;;5050614;28;20048;-70
2022/06/26 06:47:18;;;;;;;3.95;3.10;;;;;;;;;;5047937;28;20365;-70
2022/06/26 06:50:07;;;;;;;3.03;2.72;;;;;;;;;;5015712;28;20041;-71
2022/06/26 06:52:33;;;;;;;2.97;2.70;;;;;;;;;;5033554;28;20034;-70
2022/06/26 06:54:58;;;;;;;5.15;3.10;;;;;;;;;;5033580;28;20045;-71
2022/06/26 06:57:25;;;;;;;2.92;2.70;;;;;;;;;;5033394;28;20483;-70
2022/06/26 06:59:50;;;;;;;2.65;2.53;;;;;;;;;;5033436;28;20072;-70
2022/06/26 07:02:16;;;;;;;4.18;2.80;;;;;;;;;;5050043;28;20029;-70
2022/06/26 07:04:44;;;;;;;3.35;2.90;;;;;;;;;;5033365;28;20461;-70
2022/06/26 07:07:10;;;;;;;2.53;2.42;;;;;;;;;;5050094;28;20064;-70
2022/06/26 07:09:36;;;;;;;3.88;2.58;;;;;;;;;;5033349;28;20020;-70
2022/06/26 07:12:02;;;;;;;2.67;2.47;;;;;;;;;;5049884;28;20372;-70
2022/06/26 07:14:27;;;;;;;4.00;2.47;;;;;;;;;;5049876;28;20387;-70
2022/06/26 07:16:53;;;;;;;2.80;2.50;;;;;;;;;;5034293;28;20033;-70
2022/06/26 07:19:18;;;;;;;2.60;2.40;;;;;;;;;;5049747;28;20033;-70
2022/06/26 07:21:44;;;;;;;3.90;2.63;;;;;;;;;;5049633;28;20029;-70
2022/06/26 07:24:13;;;;;;;2.47;2.22;;;;;;;;;;5034309;28;20051;-70
2022/06/26 07:27:06;;;;;;;4.32;2.40;;;;;;;;;;5032874;28;20057;-70
2022/06/26 07:29:37;;;;;;;3.28;2.78;;;;;;;;;;5032906;28;20032;-70
2022/06/26 07:32:02;;;;;;;3.30;2.40;;;;;;;;;;5034080;28;20033;-70
2022/06/26 07:34:28;;;;;;;2.50;2.25;;;;;;;;;;5049712;28;20067;-70
2022/06/26 07:36:58;;;;;;;3.50;2.85;;;;;;;;;;5049315;28;20036;-70
2022/06/26 07:39:24;;;;;;;4.68;2.80;;;;;;;;;;5033922;28;20030;-70
2022/06/26 07:41:50;;;;;;;2.78;2.58;;;;;;;;;;5049310;28;20129;-70
2022/06/26 07:44:15;;;;;;;3.67;2.42;;;;;;;;;;5033803;28;20033;-72
2022/06/26 07:46:43;;;;;;;2.47;2.28;;;;;;;;;;5049253;28;20024;-75
2022/06/26 07:49:13;;;;;;;3.30;2.58;;;;;;;;;;5033072;28;20032;-75
2022/06/26 07:51:39;;;;;;;3.92;2.40;;;;;;;;;;5032630;28;20017;-75
2022/06/26 07:54:04;;;;;;;2.70;2.50;;;;;;;;;;5032957;28;20131;-76
2022/06/26 07:56:30;;;;;;;2.95;2.50;;;;;;;;;;5035056;28;20021;-76
2022/06/26 07:58:55;;;;;;;2.38;2.17;;;;;;;;;;5033960;28;20383;-75
2022/06/26 08:01:21;;;;;;;4.55;2.60;;;;;;;;;;5034895;28;20456;-76
2022/06/26 08:03:46;;;;;;;3.63;2.35;;;;;;;;;;5034875;28;20407;-76
2022/06/26 08:06:12;;;;;;;2.40;2.30;;;;;;;;;;5033539;28;20028;-76
2022/06/26 08:08:38;;;;;;;2.38;2.28;;;;;;;;;;5033305;28;20036;-76
2022/06/26 08:11:03;;;;;;;2.72;2.35;;;;;;;;;;5035190;28;20395;-76
2022/06/26 08:13:29;;;;;;;3.90;2.38;;;;;;;;;;5034680;28;20029;-75
2022/06/26 08:15:54;;;;;;;2.45;2.25;;;;;;;;;;5033059;28;20052;-75
2022/06/26 08:18:20;;;;;;;2.20;2.05;;;;;;;;;;5034067;28;20510;-76
2022/06/26 08:20:45;;;;;;;2.22;2.13;;;;;;;;;;5034208;28;20029;-75
2022/06/26 08:23:11;;;;;;;4.47;2.10;;;;;;;;;;5034464;28;20109;-76
2022/06/26 08:25:36;;;;;;;3.00;2.47;;;;;;;;;;5034708;28;20018;-75
2022/06/26 08:28:03;;;;;;;2.17;2.08;;;;;;;;;;5049465;28;20061;-75
2022/06/26 08:30:28;;;;;;;3.92;2.35;;;;;;;;;;5034662;28;20024;-75
2022/06/26 08:32:57;;;;;;;3.45;2.40;;;;;;;;;;5050021;28;20030;-75
2022/06/26 08:35:22;;;;;;;7.65;2.60;;;;;;;;;;5032836;28;20021;-76
2022/06/26 08:37:48;;;;;;;6.65;2.60;;;;;;;;;;5034109;28;20113;-76
2022/06/26 08:40:13;;;;;;;3.35;2.20;;;;;;;;;;5033929;28;20491;-75
2022/06/26 08:42:40;;;;;;;4.20;2.38;;;;;;;;;;5034465;28;20128;-75
2022/06/26 08:45:06;;;;;;;2.80;2.28;;;;;;;;;;5034184;28;20067;-75
2022/06/26 08:47:35;;;;;;;2.28;2.05;;;;;;;;;;5033693;28;20053;-75
2022/06/26 08:50:00;;;;;;;3.22;2.50;;;;;;;;;;5033959;28;20052;-75
2022/06/26 08:52:29;;;;;;;2.70;2.50;;;;;;;;;;5032555;28;20456;-75
2022/06/26 08:54:54;;;;;;;2.42;2.22;;;;;;;;;;5041087;28;20507;-76
2022/06/26 08:57:20;;;;;;;5.53;2.58;;;;;;;;;;5037227;28;20068;-75
2022/06/26 08:59:45;;;;;;;4.43;1.98;;;;;;;;;;5032964;28;20017;-75
2022/06/26 09:02:12;;;;;;;3.95;2.20;;;;;;;;;;5034109;28;20064;-75
2022/06/26 09:04:37;;;;;;;4.18;2.50;;;;;;;;;;5034286;28;20052;-76
2022/06/26 09:07:05;;;;;;;2.45;2.35;;;;;;;;;;5033850;28;20025;-76
2022/06/26 09:09:30;;;;;;;2.83;2.50;;;;;;;;;;5038071;28;20422;-75
2022/06/26 09:11:57;;;;;;;4.03;2.60;;;;;;;;;;5040171;28;20116;-76
2022/06/26 09:14:25;;;;;;;2.30;2.20;;;;;;;;;;5039027;28;20018;-76
2022/06/26 09:16:56;;;;;;;2.67;2.40;;;;;;;;;;5034299;28;20045;-76
2022/06/26 09:19:28;;;;;;;2.58;2.38;;;;;;;;;;5039114;28;20029;-76
2022/06/26 09:22:08;;;;;;;2.42;2.20;;;;;;;;;;5037936;28;20037;-76
2022/06/26 09:24:36;;;;;;;2.40;2.13;;;;;;;;;;5039147;28;20151;-76
2022/06/26 09:27:04;;;;;;;2.65;2.45;;;;;;;;;;5037763;28;20021;-76
2022/06/26 09:29:30;;;;;;;3.42;2.38;;;;;;;;;;5039035;28;20029;-77
2022/06/26 09:31:55;;;;;;;2.55;2.42;;;;;;;;;;5037689;28;20024;-76
2022/06/26 09:34:24;;;;;;;4.47;2.70;;;;;;;;;;5039109;28;20104;-77
2022/06/26 09:37:03;;;;;;;2.53;2.35;;;;;;;;;;5039351;28;20045;-76
2022/06/26 09:39:32;;;;;;;2.60;2.40;;;;;;;;;;5039501;28;20029;-76
2022/06/26 09:42:03;;;;;;;2.67;2.20;;;;;;;;;;5038943;28;20076;-76
2022/06/26 09:44:28;;;;;;;;;;;;;;;;;;5039371;28;20282;-76
2022/06/26 09:46:54;;;;;;;2.92;2.72;;;;;;;;;;5038832;28;19909;-75
2022/06/26 09:49:19;;;;;;;5.65;2.40;;;;;;;;;;5038833;28;20026;-76
2022/06/26 09:51:45;;;;;;;2.80;2.60;;;;;;;;;;5038783;28;20028;-76
2022/06/26 09:54:10;;;;;;;2.97;2.50;;;;;;;;;;5037540;28;20033;-75
2022/06/26 09:56:36;;;;;;;2.72;2.53;;;;;;;;;;5038735;28;20431;-76
2022/06/26 09:59:01;;;;;;;2.55;2.35;;;;;;;;;;5037362;28;20039;-75
2022/06/26 10:06:58;;;;;;;2.08;1.98;;;;;;;;;;5038575;28;20117;-75
2022/06/26 10:09:24;;;;;;;4.93;2.30;;;;;;;;;;5038660;28;20092;-75
2022/06/26 10:11:51;;;;;;;3.83;2.25;;;;;;;;;;5038953;28;20025;-75
2022/06/26 10:14:21;;;;;;;2.20;2.10;;;;;;;;;;5037295;28;20091;-75
2022/06/26 10:16:56;;;;;;;2.53;2.33;;;;;;;;;;5038286;28;20484;-76
2022/06/26 10:19:28;;;;;;;2.47;2.28;;;;;;;;;;5037185;28;20464;-76
2022/06/26 10:21:54;;;;;;;3.60;2.30;;;;;;;;;;5034713;28;20037;-75
2022/06/26 10:24:23;;;;;;;3.80;2.42;;;;;;;;;;5035430;28;20017;-75
2022/06/26 10:26:59;;;;;;;3.10;2.17;;;;;;;;;;5035227;28;20433;-74
2022/06/26 10:29:39;;;;;;;3.38;2.40;;;;;;;;;;5035283;28;20467;-75
2022/06/26 10:32:06;;;;;;;2.55;2.17;;;;;;;;;;5034295;28;20464;-74
2022/06/26 10:34:31;;;;;;;5.93;2.63;;;;;;;;;;5035219;28;20033;-75
2022/06/26 10:37:01;;;;;;;2.70;2.50;;;;;;;;;;5035206;28;20030;-75
2022/06/26 10:39:39;;;;;;;3.25;2.20;;;;;;;;;;5034045;28;20049;-75
2022/06/26 10:44:58;;;;;;;2.55;2.30;;;;;;;;;;5034955;28;20057;-75
2022/06/26 10:47:23;;;;;;;3.00;2.30;;;;;;;;;;5034906;28;20486;-74
2022/06/26 10:49:52;;;;;;;3.10;2.42;;;;;;;;;;5034829;28;20021;-75
2022/06/26 10:52:25;;;;;;;3.80;2.22;;;;;;;;;;5034884;28;20021;-75
2022/06/26 10:54:51;;;;;;;4.53;2.22;;;;;;;;;;5033513;28;20029;-75
2022/06/26 10:57:17;;;;;;;2.28;2.10;;;;;;;;;;5034820;28;20076;-75
2022/06/26 10:59:44;;;;;;;3.42;2.33;;;;;;;;;;5034726;28;20041;-75
2022/06/26 11:02:10;;;;;;;2.65;2.38;;;;;;;;;;5035007;28;20017;-75
2022/06/26 11:04:45;;;;;;;3.35;2.30;;;;;;;;;;5034862;28;20040;-75
2022/06/26 11:07:12;;;;;;;4.03;2.30;;;;;;;;;;5034499;28;20040;-75
2022/06/26 11:09:38;;;;;;;2.20;2.10;;;;;;;;;;5034588;28;20047;-74
2022/06/26 11:12:04;;;;;;;3.33;2.28;;;;;;;;;;5033157;28;20083;-76
2022/06/26 11:14:30;;;;;;;2.65;2.45;;;;;;;;;;5034436;28;20019;-75
2022/06/26 11:16:55;;;;;;;2.38;2.28;;;;;;;;;;5034290;28;20120;-76
2022/06/26 11:19:28;;;;;;;2.63;2.40;;;;;;;;;;5034423;28;20061;-75
2022/06/26 11:22:10;;;;;;;3.38;2.10;;;;;;;;;;5033087;28;20434;-75
2022/06/26 11:24:46;;;;;;;3.33;2.42;;;;;;;;;;5033127;28;20049;-71
2022/06/26 11:27:13;;;;;;;2.70;2.47;;;;;;;;;;5034399;28;20038;-71
2022/06/26 11:29:39;;;;;;;2.55;2.35;;;;;;;;;;5032940;28;20021;-71
2022/06/26 11:32:05;;;;;;;2.55;2.35;;;;;;;;;;5031991;28;20075;-71
2022/06/26 11:34:30;;;;;;;3.45;2.50;;;;;;;;;;5033973;28;20014;-71
2022/06/26 11:36:58;;;;;;;5.88;2.40;;;;;;;;;;5034067;28;20033;-71
2022/06/26 11:39:24;;;;;;;4.00;2.00;;;;;;;;;;5033976;28;20021;-72
2022/06/26 11:41:49;;;;;;;2.47;2.38;;;;;;;;;;5033923;28;20471;-72
2022/06/26 11:44:15;;;;;;;2.50;2.30;;;;;;;;;;5032695;28;20029;-72
2022/06/26 11:46:40;;;;;;;2.30;2.10;;;;;;;;;;5033655;28;20068;-72
2022/06/26 11:49:08;;;;;;;2.63;2.50;;;;;;;;;;5033753;28;20049;-69
2022/06/26 11:51:34;;;;;;;2.15;2.05;;;;;;;;;;5033796;28;20021;-69
2022/06/26 11:53:59;;;;;;;2.50;2.30;;;;;;;;;;5032680;28;20014;-69
2022/06/26 11:56:26;;;;;;;3.45;2.17;;;;;;;;;;5033769;28;20040;-69
2022/06/26 11:58:52;;;;;;;2.47;2.28;;;;;;;;;;5033642;28;20024;-69
2022/06/26 12:01:19;;;;;;;2.50;2.35;;;;;;;;;;5033588;28;20077;-69
2022/06/26 12:03:47;;;;;;;3.75;2.80;;;;;;;;;;5033568;28;20017;-69
2022/06/26 12:06:13;;;;;;;2.83;2.63;;;;;;;;;;5032179;28;20391;-69
2022/06/26 12:08:39;;;;;;;2.38;2.10;;;;;;;;;;5032158;28;20029;-68
2022/06/26 12:11:04;;;;;;;2.58;2.30;;;;;;;;;;5032154;28;20033;-68
2022/06/26 12:13:33;;;;;;;2.25;2.15;;;;;;;;;;5033330;28;20025;-68
2022/06/26 12:16:01;;;;;;;5.80;2.40;;;;;;;;;;5033340;28;20036;-68
2022/06/26 12:18:26;;;;;;;5.00;2.40;;;;;;;;;;5033131;28;20495;-69
2022/06/26 12:20:52;;;;;;;2.53;2.33;;;;;;;;;;5033224;28;20116;-69
2022/06/26 12:23:18;;;;;;;4.43;2.55;;;;;;;;;;5031980;28;20033;-69
2022/06/26 12:25:45;;;;;;;4.03;2.67;;;;;;;;;;5033182;28;20060;-69
2022/06/26 12:28:20;;;;;;;3.00;2.75;;;;;;;;;;5033141;28;20095;-69
2022/06/26 12:30:45;;;;;;;4.93;2.67;;;;;;;;;;5032121;28;20071;-69
2022/06/26 12:33:11;;;;;;;2.72;2.53;;;;;;;;;;5031905;28;20104;-68
2022/06/26 12:35:36;;;;;;;2.78;2.58;;;;;;;;;;5032981;28;20041;-68
2022/06/26 12:38:03;;;;;;;3.05;2.83;;;;;;;;;;5032916;28;20029;-68
2022/06/26 12:40:29;;;;;;;4.20;2.40;;;;;;;;;;5032864;28;20033;-68
2022/06/26 12:42:55;;;;;;;2.50;2.40;;;;;;;;;;5032745;28;20486;-69
2022/06/26 12:45:29;;;;;;;3.55;2.90;;;;;;;;;;5031468;28;20037;-69
2022/06/26 12:47:54;;;;;;;3.10;2.47;;;;;;;;;;5032669;28;20048;-69
2022/06/26 12:50:20;;;;;;;2.83;2.58;;;;;;;;;;5031615;28;20025;-69
2022/06/26 12:52:45;;;;;;;3.00;2.55;;;;;;;;;;5033408;28;20040;-69
2022/06/26 12:55:11;;;;;;;2.47;2.30;;;;;;;;;;5034044;28;20100;-69
2022/06/26 12:57:36;;;;;;;2.65;2.45;;;;;;;;;;5033741;28;20029;-69
2022/06/26 13:00:05;;;;;;;2.90;2.28;;;;;;;;;;5034235;28;20018;-69
2022/06/26 13:02:31;;;;;;;3.67;2.38;;;;;;;;;;5033950;28;20404;-68
2022/06/26 13:04:56;;;;;;;2.50;2.30;;;;;;;;;;5033004;28;20018;-69
2022/06/26 13:07:21;;;;;;;2.42;2.22;;;;;;;;;;5032288;28;20037;-69
2022/06/26 13:09:47;;;;;;;2.38;2.28;;;;;;;;;;5033915;28;20021;-68
2022/06/26 13:12:12;;;;;;;5.53;2.83;;;;;;;;;;5044850;23;20522;-73
2022/06/26 13:14:38;;;;;;;2.40;2.20;;;;;;;;;;5045123;23;20099;-68
2022/06/26 13:17:04;;;;;;;3.08;2.50;;;;;;;;;;5033382;28;20091;-69
2022/06/26 13:19:29;;;;;;;3.63;2.50;;;;;;;;;;5015777;28;20057;-68
2022/06/26 13:21:55;;;;;;;2.67;2.47;;;;;;;;;;5034043;28;20361;-68
2022/06/26 13:24:21;;;;;;;3.92;2.63;;;;;;;;;;5033444;28;20108;-69
2022/06/26 13:26:50;;;;;;;2.60;2.40;;;;;;;;;;5034084;28;20018;-66
2022/06/26 13:29:15;;;;;;;3.13;2.20;;;;;;;;;;5033690;28;20026;-68
2022/06/26 13:31:40;;;;;;;2.75;2.55;;;;;;;;;;5033671;28;20026;-67
2022/06/26 13:34:06;;;;;;;2.40;2.17;;;;;;;;;;5033446;28;20108;-69
2022/06/26 13:36:32;;;;;;;5.75;2.47;;;;;;;;;;5032731;28;20018;-67
2022/06/26 13:38:57;;;;;;;2.80;2.60;;;;;;;;;;5033467;28;20065;-67
2022/06/26 13:41:22;;;;;;;2.80;2.38;;;;;;;;;;5033394;28;20072;-67
2022/06/26 13:43:48;;;;;;;3.92;2.60;;;;;;;;;;5033445;28;20374;-67
2022/06/26 13:46:13;;;;;;;2.50;2.30;;;;;;;;;;5033599;28;20064;-68
2022/06/26 13:48:39;;;;;;;2.85;2.55;;;;;;;;;;5032375;28;20036;-68
2022/06/26 13:51:04;;;;;;;3.08;2.80;;;;;;;;;;5032796;28;20006;-68
2022/06/26 13:53:30;;;;;;;3.00;2.38;;;;;;;;;;5032241;28;20030;-66
2022/06/26 13:55:55;;;;;;;3.05;2.30;;;;;;;;;;5033980;28;20032;-68
2022/06/26 13:58:21;;;;;;;4.22;2.35;;;;;;;;;;5036704;28;20030;-75
2022/06/26 14:00:47;;;;;;;3.08;2.88;;;;;;;;;;5036048;28;20021;-75
2022/06/26 14:03:13;;;;;;;2.20;2.10;;;;;;;;;;5036048;28;20029;-73
2022/06/26 14:05:38;;;;;;;3.42;2.40;;;;;;;;;;5036028;28;20021;-74
2022/06/26 14:08:04;;;;;;;6.18;2.60;;;;;;;;;;5035565;28;20386;-75
2022/06/26 14:10:29;;;;;;;2.50;2.30;;;;;;;;;;5035650;28;20471;-75
2022/06/26 14:12:55;;;;;;;2.25;2.10;;;;;;;;;;5035473;28;20383;-73
2022/06/26 14:15:20;;;;;;;4.40;2.28;;;;;;;;;;5035562;28;20033;-73
2022/06/26 14:17:46;;;;;;;2.90;2.15;;;;;;;;;;5035579;28;20028;-76
2022/06/26 14:20:11;;;;;;;4.95;2.40;;;;;;;;;;5035585;28;20645;-75
2022/06/26 14:28:07;;;;;;;3.88;2.22;;;;;;;;;;5017483;28;20095;-74
2022/06/26 14:30:32;;;;;;;4.80;2.30;;;;;;;;;;5034129;28;20022;-74
2022/06/26 14:32:58;;;;;;;3.40;2.20;;;;;;;;;;5017480;28;20033;-74
2022/06/26 14:35:23;;;;;;;2.47;2.33;;;;;;;;;;5017741;28;20028;-74
2022/06/26 14:37:49;;;;;;;2.70;2.50;;;;;;;;;;5035198;28;20029;-74
2022/06/26 14:40:14;;;;;;;2.20;2.10;;;;;;;;;;5035216;28;20444;-74
2022/06/26 14:42:43;;;;;;;3.25;2.13;;;;;;;;;;5035206;28;20033;-75
2022/06/26 14:45:09;;;;;;;2.47;2.28;;;;;;;;;;5035015;28;20024;-74
2022/06/26 14:47:34;;;;;;;2.63;2.42;;;;;;;;;;5034954;28;20029;-74
2022/06/26 14:50:01;;;;;;;3.05;2.45;;;;;;;;;;5034896;28;20009;-74
2022/06/26 14:52:27;;;;;;;3.83;2.40;;;;;;;;;;5034922;28;20033;-74
2022/06/26 14:54:52;;;;;;;3.70;2.45;;;;;;;;;;5017211;28;20022;-74
2022/06/26 14:57:18;;;;;;;4.30;2.50;;;;;;;;;;5017349;28;20114;-75
2022/06/26 14:59:44;;;;;;;2.45;2.17;;;;;;;;;;5017180;28;20557;-78
2022/06/26 15:02:10;;;;;;;8.80;3.00;;;;;;;;;;5017009;28;20033;-78
2022/06/26 15:04:35;;;;;;;2.80;2.40;;;;;;;;;;5035005;28;20124;-76